Red Lake, Arizona
Current Conditions -  °F | °C
As of 4:56 AM on Friday 19 Dec 2014 (Local Time) from KINW Reporting Station
Clear Clear  
Wind Chill: 23°   Ceiling: Unl
Heat Index: 23°   Visibility: 10mi
Dew Point: 20°   Wind: 0mph
Humidity: 88%   Direction: NA
Pressure: 30.22"   Gusts: NA
Location:  35.9324°N, 110.869°W
Report Text: KINW 191156Z AUTO 00000KT 10SM CLR M05/M07 A3022 RMK AO2 SLP247 I1000 I6000 T10501067 11011 21050 53004
Loading
Personal Weather Stations






























Interactive Weather Map New forecast layout! Learn more

10-Day Weather Forecast

Advertisements
Track Severe Weather on mobile